Time;durP1;ratioP1;P1;durP2;ratioP2;P2;SDS_P1;SDS_P2;PMS_P1;PMS_P2;Temp;Humidity;BMP_temperature;BMP_pressure;BME280_temperature;BME280_humidity;BME280_pressure;Samples;Min_cycle;Max_cycle;Signal;HPM_P1;HPM_P2
2022/03/16 00:01:18;;;;;;;29.48;18.45;;;5.90;99.90;;;;;;5092952;28;20032;-65
2022/03/16 00:03:44;;;;;;;28.55;18.10;;;5.80;99.90;;;;;;5077719;28;20073;-67
2022/03/16 00:06:10;;;;;;;28.50;18.13;;;5.80;99.90;;;;;;5095751;27;20036;-66
2022/03/16 00:08:36;;;;;;;31.08;19.23;;;5.80;99.90;;;;;;5092320;27;20063;-68
2022/03/16 00:11:02;;;;;;;28.55;17.63;;;5.80;99.90;;;;;;5100096;28;20051;-66
2022/03/16 00:13:27;;;;;;;31.08;18.20;;;5.80;99.90;;;;;;5102124;28;20082;-66
2022/03/16 00:15:53;;;;;;;29.63;18.15;;;5.70;99.90;;;;;;5101228;27;20040;-66
2022/03/16 00:18:21;;;;;;;31.45;18.70;;;5.70;99.90;;;;;;5107632;28;20044;-67
2022/03/16 00:20:48;;;;;;;26.63;17.77;;;5.70;99.90;;;;;;5096843;27;20153;-66
2022/03/16 00:23:17;;;;;;;26.30;18.13;;;5.70;99.90;;;;;;5081714;28;20796;-67
2022/03/16 00:25:43;;;;;;;29.10;18.27;;;5.70;99.90;;;;;;5097746;28;20032;-66
2022/03/16 00:28:09;;;;;;;25.95;16.95;;;5.70;99.90;;;;;;5095276;28;20044;-66
2022/03/16 00:30:39;;;;;;;46.08;25.20;;;5.60;99.90;;;;;;5093021;28;20082;-66
2022/03/16 00:33:05;;;;;;;39.22;23.40;;;5.60;99.90;;;;;;5094120;27;20040;-67
2022/03/16 00:35:31;;;;;;;36.17;21.77;;;5.60;99.90;;;;;;5093234;28;20073;-66
2022/03/16 00:37:56;;;;;;;37.38;22.35;;;5.60;99.90;;;;;;5091060;28;20147;-66
2022/03/16 00:40:22;;;;;;;36.28;22.45;;;5.60;99.90;;;;;;5090208;27;20131;-67
2022/03/16 00:42:48;;;;;;;31.83;20.05;;;5.70;99.90;;;;;;5096206;27;20043;-66
2022/03/16 00:45:13;;;;;;;34.25;19.75;;;5.70;99.90;;;;;;5091625;28;20106;-67
2022/03/16 00:47:39;;;;;;;29.25;19.27;;;5.70;99.90;;;;;;5091330;28;20055;-68
2022/03/16 00:50:06;;;;;;;28.98;19.58;;;5.70;99.90;;;;;;5095284;28;20452;-67
2022/03/16 00:52:31;;;;;;;30.25;20.15;;;5.60;99.90;;;;;;5093076;28;20053;-66
2022/03/16 00:54:57;;;;;;;30.25;19.13;;;5.60;99.90;;;;;;5089836;28;20047;-67
2022/03/16 00:57:23;;;;;;;29.17;18.77;;;5.60;99.90;;;;;;5079850;28;20059;-67
2022/03/16 00:59:48;;;;;;;29.65;19.70;;;5.50;99.90;;;;;;5090245;27;20044;-66
2022/03/16 01:02:14;;;;;;;30.63;20.02;;;5.50;99.90;;;;;;5092361;28;20150;-66
2022/03/16 01:04:39;;;;;;;27.35;18.40;;;5.40;99.90;;;;;;5089895;28;20413;-66
2022/03/16 01:07:05;;;;;;;29.75;17.95;;;5.40;99.90;;;;;;5090031;28;21620;-66
2022/03/16 01:09:31;;;;;;;28.70;19.35;;;5.40;99.90;;;;;;5092762;28;20138;-66
2022/03/16 01:11:56;;;;;;;30.38;18.48;;;5.40;99.90;;;;;;5088615;28;20472;-66
2022/03/16 01:14:22;;;;;;;30.20;19.02;;;5.40;99.90;;;;;;5091104;28;20040;-67
2022/03/16 01:16:48;;;;;;;29.90;19.52;;;5.30;99.90;;;;;;5091087;27;20430;-68
2022/03/16 01:19:14;;;;;;;26.13;17.73;;;5.30;99.90;;;;;;5093411;28;20036;-67
2022/03/16 01:21:41;;;;;;;26.10;18.38;;;5.30;99.90;;;;;;5074804;28;20044;-66
2022/03/16 01:24:08;;;;;;;25.95;17.85;;;5.30;99.90;;;;;;5090013;28;20063;-66
2022/03/16 01:26:34;;;;;;;28.10;18.42;;;5.20;99.90;;;;;;5097078;28;20104;-67
2022/03/16 01:29:01;;;;;;;30.38;19.20;;;5.10;99.90;;;;;;5084488;28;20044;-67
2022/03/16 01:31:27;;;;;;;29.08;18.48;;;5.10;99.90;;;;;;5100882;28;20036;-66
2022/03/16 01:33:52;;;;;;;26.77;18.08;;;5.10;99.90;;;;;;5095931;28;20080;-66
2022/03/16 01:36:18;;;;;;;30.05;18.38;;;5.10;99.90;;;;;;5098427;28;20054;-66
2022/03/16 01:38:44;;;;;;;31.10;18.33;;;5.00;99.90;;;;;;5105642;28;20042;-67
2022/03/16 01:41:10;;;;;;;29.40;19.08;;;5.00;99.90;;;;;;5103742;28;20059;-66
2022/03/16 01:43:36;;;;;;;27.88;18.33;;;5.00;99.90;;;;;;5089266;28;20051;-68
2022/03/16 01:46:01;;;;;;;28.90;17.85;;;5.00;99.90;;;;;;5093322;28;20189;-66
2022/03/16 01:48:27;;;;;;;29.52;18.58;;;4.90;99.90;;;;;;5091903;28;21500;-67
2022/03/16 01:50:54;;;;;;;27.17;18.23;;;4.90;99.90;;;;;;5097272;28;20061;-66
2022/03/16 01:53:20;;;;;;;27.00;17.60;;;4.80;99.90;;;;;;5104312;28;20150;-67
2022/03/16 01:55:47;;;;;;;27.15;17.40;;;4.80;99.90;;;;;;5102802;28;20054;-66
2022/03/16 01:58:13;;;;;;;28.92;18.15;;;4.80;99.90;;;;;;5105363;28;20051;-66
2022/03/16 02:00:42;;;;;;;26.67;17.77;;;4.80;99.90;;;;;;5104479;28;20043;-66
2022/03/16 02:03:08;;;;;;;26.42;17.00;;;4.70;99.90;;;;;;5100821;28;20115;-65
2022/03/16 02:05:34;;;;;;;26.70;17.30;;;4.70;99.90;;;;;;5097720;28;20108;-65
2022/03/16 02:08:01;;;;;;;28.23;17.40;;;4.70;99.90;;;;;;5091902;28;20048;-65
2022/03/16 02:10:27;;;;;;;28.65;18.15;;;4.70;99.90;;;;;;5103923;28;20032;-66
2022/03/16 02:12:52;;;;;;;27.10;17.95;;;4.60;99.90;;;;;;5104999;28;20059;-66
2022/03/16 02:15:19;;;;;;;26.75;17.00;;;4.60;99.90;;;;;;5096948;28;21673;-66
2022/03/16 02:17:45;;;;;;;28.83;17.77;;;4.60;99.90;;;;;;5104854;28;20035;-66
2022/03/16 02:20:11;;;;;;;27.65;17.88;;;4.60;99.90;;;;;;5102003;28;20054;-66
2022/03/16 02:23:02;;;;;;;24.73;16.40;;;4.60;99.90;;;;;;5102045;28;20374;-65
2022/03/16 02:25:29;;;;;;;26.23;16.67;;;4.60;99.90;;;;;;5084351;28;20220;-67
2022/03/16 02:27:55;;;;;;;25.55;15.50;;;4.50;99.90;;;;;;5102529;28;20126;-67
2022/03/16 02:30:22;;;;;;;25.75;16.85;;;4.50;99.90;;;;;;5104807;28;20047;-66
2022/03/16 02:32:48;;;;;;;30.08;18.33;;;4.50;99.90;;;;;;5098803;28;20841;-66
2022/03/16 02:35:14;;;;;;;24.35;17.23;;;4.50;99.90;;;;;;5101899;28;20127;-66
2022/03/16 02:37:40;;;;;;;23.55;16.35;;;4.50;99.90;;;;;;5108040;28;20036;-66
2022/03/16 02:40:09;;;;;;;26.35;17.40;;;4.50;99.90;;;;;;5100556;28;20044;-67
2022/03/16 02:42:35;;;;;;;25.02;16.30;;;4.50;99.90;;;;;;5105917;27;20342;-68
2022/03/16 02:45:01;;;;;;;30.75;15.95;;;4.40;99.90;;;;;;5105951;28;20055;-68
2022/03/16 02:47:28;;;;;;;21.55;14.95;;;4.40;99.90;;;;;;5107723;27;20119;-66
2022/03/16 02:49:54;;;;;;;33.90;14.30;;;4.40;99.90;;;;;;5102465;27;20473;-66
2022/03/16 02:52:21;;;;;;;19.55;12.70;;;4.40;99.90;;;;;;5094089;28;20043;-66
2022/03/16 02:54:47;;;;;;;20.42;11.10;;;4.30;99.90;;;;;;5108820;28;20036;-66
2022/03/16 02:57:16;;;;;;;23.33;12.15;;;4.30;99.90;;;;;;5106808;27;20039;-66
2022/03/16 02:59:42;;;;;;;27.10;12.43;;;4.20;99.90;;;;;;5106151;27;20453;-67
2022/03/16 03:02:08;;;;;;;16.83;11.95;;;4.20;99.90;;;;;;5100569;27;20101;-66
2022/03/16 03:04:33;;;;;;;18.70;13.80;;;4.20;99.90;;;;;;5092381;28;20090;-66
2022/03/16 03:06:59;;;;;;;19.40;14.50;;;4.20;99.90;;;;;;5095279;28;20450;-68
2022/03/16 03:09:25;;;;;;;19.85;14.93;;;4.10;99.90;;;;;;5090975;28;20055;-67
2022/03/16 03:11:51;;;;;;;20.55;14.40;;;4.00;99.90;;;;;;5080443;28;20046;-67
2022/03/16 03:14:16;;;;;;;20.73;14.40;;;4.10;99.90;;;;;;5095365;27;20100;-67
2022/03/16 03:16:42;;;;;;;19.75;14.18;;;4.00;99.90;;;;;;5093595;28;20036;-67
2022/03/16 03:19:07;;;;;;;18.30;13.68;;;4.00;99.90;;;;;;5096974;28;20096;-66
2022/03/16 03:21:33;;;;;;;18.73;14.02;;;3.90;99.90;;;;;;5089326;28;21853;-66
2022/03/16 03:23:59;;;;;;;19.85;14.45;;;4.00;99.90;;;;;;5092555;28;20063;-66
2022/03/16 03:26:24;;;;;;;22.27;14.77;;;3.90;99.90;;;;;;5092558;28;20127;-67
2022/03/16 03:28:50;;;;;;;20.13;14.60;;;3.90;99.90;;;;;;5095213;27;20145;-67
2022/03/16 03:31:15;;;;;;;23.33;14.75;;;3.90;99.90;;;;;;5095105;27;20028;-67
2022/03/16 03:33:41;;;;;;;22.70;15.77;;;3.80;99.90;;;;;;5095026;28;20139;-66
2022/03/16 03:36:06;;;;;;;25.38;16.30;;;3.80;99.90;;;;;;5097011;28;20065;-66
2022/03/16 03:38:32;;;;;;;24.05;16.90;;;3.80;99.90;;;;;;5093967;28;20043;-66
2022/03/16 03:40:57;;;;;;;108.68;21.58;;;3.80;99.90;;;;;;5095304;27;20058;-67
2022/03/16 03:43:23;;;;;;;23.88;15.95;;;3.70;99.90;;;;;;5090600;28;20119;-66
2022/03/16 03:45:49;;;;;;;26.52;18.33;;;3.80;99.90;;;;;;5092947;28;20611;-67
2022/03/16 03:48:14;;;;;;;36.95;19.77;;;3.80;99.90;;;;;;5100174;27;20105;-66
2022/03/16 03:50:40;;;;;;;34.30;19.48;;;3.80;99.90;;;;;;5103736;28;20051;-66
2022/03/16 03:53:05;;;;;;;32.47;18.13;;;3.70;99.90;;;;;;5092863;28;20044;-66
2022/03/16 03:55:31;;;;;;;41.92;19.48;;;3.70;99.90;;;;;;5092645;28;20055;-67
2022/03/16 03:57:57;;;;;;;34.83;18.67;;;3.80;99.90;;;;;;5092750;28;20036;-67
2022/03/16 04:00:23;;;;;;;27.75;16.38;;;3.70;99.90;;;;;;5094509;27;20056;-67
2022/03/16 04:02:50;;;;;;;26.08;16.20;;;3.70;99.90;;;;;;5092610;28;20063;-68
2022/03/16 04:05:20;;;;;;;20.52;15.43;;;3.70;99.90;;;;;;5098274;27;20036;-67
2022/03/16 04:07:48;;;;;;;21.25;14.50;;;3.70;99.90;;;;;;5104297;27;20501;-66
2022/03/16 04:10:14;;;;;;;18.65;14.10;;;3.70;99.90;;;;;;5090611;27;20051;-69
2022/03/16 04:12:39;;;;;;;18.63;14.05;;;3.70;99.90;;;;;;5091946;28;20521;-67
2022/03/16 04:15:05;;;;;;;21.10;14.35;;;3.70;99.90;;;;;;5093400;28;20055;-67
2022/03/16 04:17:31;;;;;;;18.00;13.80;;;3.70;99.90;;;;;;5092120;28;20178;-66
2022/03/16 04:19:57;;;;;;;16.85;13.57;;;3.70;99.90;;;;;;5093493;28;20218;-66
2022/03/16 04:22:25;;;;;;;20.00;14.98;;;3.60;99.90;;;;;;5102067;27;20096;-66
2022/03/16 04:24:51;;;;;;;18.92;14.10;;;3.60;99.90;;;;;;5105718;28;20105;-66
2022/03/16 04:27:16;;;;;;;21.90;15.68;;;3.60;99.90;;;;;;5093896;28;20457;-67
2022/03/16 04:29:42;;;;;;;19.02;14.77;;;3.60;99.90;;;;;;5087162;28;20505;-68
2022/03/16 04:32:08;;;;;;;21.83;15.60;;;3.60;99.90;;;;;;5092048;28;20043;-66
2022/03/16 04:34:33;;;;;;;20.77;14.95;;;3.60;99.90;;;;;;5099488;27;20047;-66
2022/03/16 04:36:59;;;;;;;20.77;15.60;;;3.60;99.90;;;;;;5109353;27;20083;-67
2022/03/16 04:39:24;;;;;;;19.98;14.50;;;3.60;99.90;;;;;;5108532;27;20240;-67
2022/03/16 04:41:50;;;;;;;21.27;16.13;;;3.50;99.90;;;;;;5083533;28;20049;-66
2022/03/16 04:44:15;;;;;;;26.85;16.38;;;3.60;99.90;;;;;;5110110;27;20107;-67
2022/03/16 04:46:41;;;;;;;23.05;15.30;;;3.50;99.90;;;;;;5108561;27;20502;-67
2022/03/16 04:49:06;;;;;;;18.38;15.10;;;3.50;99.90;;;;;;5106418;27;20142;-66
2022/03/16 04:51:32;;;;;;;19.45;15.48;;;3.50;99.90;;;;;;5109711;27;20047;-67
2022/03/16 04:53:58;;;;;;;23.42;16.10;;;3.50;99.90;;;;;;5111162;27;20043;-67
2022/03/16 04:56:23;;;;;;;24.92;16.42;;;3.50;99.90;;;;;;5088771;27;20043;-67
2022/03/16 04:58:49;;;;;;;23.83;16.88;;;3.50;99.90;;;;;;5110675;27;20154;-66
2022/03/16 05:01:14;;;;;;;24.55;16.75;;;3.40;99.90;;;;;;5108158;27;20177;-67
2022/03/16 05:03:40;;;;;;;24.17;17.42;;;3.30;99.90;;;;;;5108118;27;20100;-67
2022/03/16 05:06:06;;;;;;;24.90;17.73;;;3.30;99.90;;;;;;5104609;27;20094;-67
2022/03/16 05:08:35;;;;;;;26.15;18.15;;;3.30;99.90;;;;;;5112003;27;20082;-68
2022/03/16 05:11:02;;;;;;;24.90;18.45;;;3.40;99.90;;;;;;5106911;27;20043;-66
2022/03/16 05:13:28;;;;;;;25.38;18.17;;;3.40;99.90;;;;;;5108740;27;20047;-68
2022/03/16 05:15:53;;;;;;;39.38;21.63;;;3.50;99.90;;;;;;5100788;28;20047;-67
2022/03/16 05:18:19;;;;;;;26.88;18.55;;;3.50;99.90;;;;;;5105614;28;20038;-67
2022/03/16 05:20:45;;;;;;;27.77;18.65;;;3.40;99.90;;;;;;5100877;28;20042;-68
2022/03/16 05:23:10;;;;;;;27.02;19.13;;;3.50;99.90;;;;;;5101553;28;20032;-67
2022/03/16 05:25:36;;;;;;;26.30;18.70;;;3.50;99.90;;;;;;5094818;28;20670;-66
2022/03/16 05:28:02;;;;;;;25.15;18.38;;;3.50;99.90;;;;;;5101911;27;20433;-66
2022/03/16 05:30:28;;;;;;;25.95;18.25;;;3.50;99.90;;;;;;5109614;27;20090;-67
2022/03/16 05:32:57;;;;;;;26.08;18.48;;;3.50;99.90;;;;;;5084895;28;20040;-66
2022/03/16 05:35:22;;;;;;;28.27;19.13;;;3.50;99.90;;;;;;5101073;27;20448;-66
2022/03/16 05:37:48;;;;;;;24.95;17.88;;;3.60;99.90;;;;;;5107594;28;20051;-66
2022/03/16 05:40:14;;;;;;;24.85;17.60;;;3.50;99.90;;;;;;5102669;28;20058;-68
2022/03/16 05:42:40;;;;;;;26.45;17.52;;;3.60;99.90;;;;;;5102424;27;20039;-67
2022/03/16 05:45:06;;;;;;;24.15;18.08;;;3.60;99.90;;;;;;5101870;28;20324;-68
2022/03/16 05:47:32;;;;;;;27.63;18.42;;;3.60;99.90;;;;;;5084603;28;20177;-67
2022/03/16 05:49:58;;;;;;;25.73;18.02;;;3.50;99.90;;;;;;5103846;28;20195;-67
2022/03/16 05:52:25;;;;;;;25.83;17.77;;;3.50;99.90;;;;;;5100393;28;20489;-67
2022/03/16 05:54:55;;;;;;;23.15;17.35;;;3.50;99.90;;;;;;5098882;28;20047;-67
2022/03/16 05:57:21;;;;;;;24.45;17.40;;;3.50;99.90;;;;;;5103074;28;20660;-66
2022/03/16 05:59:47;;;;;;;24.95;18.25;;;3.50;99.90;;;;;;5107196;28;20105;-66
2022/03/16 06:02:13;;;;;;;25.25;18.10;;;3.50;99.90;;;;;;5059595;28;20051;-70
2022/03/16 06:04:40;;;;;;;23.38;17.13;;;3.50;99.90;;;;;;5105651;28;20036;-67
2022/03/16 06:07:06;;;;;;;24.85;17.88;;;3.50;99.90;;;;;;5100347;28;20134;-67
2022/03/16 06:09:33;;;;;;;25.25;18.25;;;3.60;99.90;;;;;;5108132;28;20043;-67
2022/03/16 06:11:59;;;;;;;25.85;18.75;;;3.60;99.90;;;;;;5105358;27;20516;-67
2022/03/16 06:14:25;;;;;;;26.45;18.40;;;3.60;99.90;;;;;;5106035;27;20036;-67
2022/03/16 06:16:52;;;;;;;26.55;18.77;;;3.60;99.90;;;;;;5106635;28;20070;-68
2022/03/16 06:19:21;;;;;;;28.75;20.10;;;3.60;99.90;;;;;;5103950;27;20450;-67
2022/03/16 06:21:47;;;;;;;26.38;19.52;;;3.70;99.90;;;;;;5111559;28;20441;-66
2022/03/16 06:24:13;;;;;;;29.25;20.63;;;3.70;99.90;;;;;;5101220;28;20063;-69
2022/03/16 06:26:39;;;;;;;29.60;22.05;;;3.70;99.90;;;;;;5107232;28;20171;-71
2022/03/16 06:29:06;;;;;;;28.45;21.40;;;3.80;99.90;;;;;;5092647;28;20101;-68
2022/03/16 06:31:31;;;;;;;31.40;22.20;;;3.80;99.90;;;;;;5106773;27;20143;-68
2022/03/16 06:33:57;;;;;;;29.42;21.73;;;3.90;99.90;;;;;;5102382;28;20126;-68
2022/03/16 06:36:23;;;;;;;31.80;22.23;;;4.00;99.90;;;;;;5100406;28;20069;-68
2022/03/16 06:38:48;;;;;;;34.40;22.80;;;4.10;99.90;;;;;;5106372;28;20075;-68
2022/03/16 06:41:14;;;;;;;36.45;23.70;;;4.10;99.90;;;;;;5105146;28;20036;-67
2022/03/16 06:43:40;;;;;;;32.95;23.13;;;4.20;99.90;;;;;;5093122;28;20032;-69
2022/03/16 06:46:06;;;;;;;33.83;24.05;;;4.20;99.90;;;;;;5079452;28;20130;-67
2022/03/16 06:48:32;;;;;;;33.38;23.55;;;4.30;99.90;;;;;;5102561;28;20131;-68
2022/03/16 06:50:58;;;;;;;34.70;24.35;;;4.30;99.90;;;;;;5118935;27;20035;-67
2022/03/16 06:53:24;;;;;;;35.08;24.00;;;4.40;99.90;;;;;;5109321;28;20101;-67
2022/03/16 06:55:49;;;;;;;42.30;27.83;;;4.50;99.90;;;;;;5107522;27;20039;-68
2022/03/16 06:58:15;;;;;;;37.72;26.38;;;4.50;99.90;;;;;;5109066;28;20040;-68
2022/03/16 07:00:40;;;;;;;34.28;24.48;;;4.60;99.90;;;;;;5096865;28;20039;-67
2022/03/16 07:03:06;;;;;;;34.28;25.40;;;4.70;99.90;;;;;;5088564;28;20036;-68
2022/03/16 07:05:36;;;;;;;35.15;24.77;;;4.80;99.90;;;;;;5106447;27;20044;-68
2022/03/16 07:08:08;;;;;;;38.45;25.65;;;4.90;99.90;;;;;;5107989;28;20756;-68
2022/03/16 07:10:35;;;;;;;35.42;26.42;;;5.00;99.90;;;;;;5097916;27;20089;-67
2022/03/16 07:13:01;;;;;;;39.83;27.50;;;5.00;99.90;;;;;;5098065;27;20051;-68
2022/03/16 07:15:30;;;;;;;37.75;28.25;;;5.10;99.90;;;;;;5092856;28;20127;-68
2022/03/16 07:17:56;;;;;;;41.00;28.70;;;5.20;99.90;;;;;;5109336;28;20182;-68
2022/03/16 07:20:21;;;;;;;40.30;27.50;;;5.30;99.90;;;;;;5108199;27;20214;-67
2022/03/16 07:23:09;;;;;;;41.55;28.45;;;5.40;99.90;;;;;;5100124;28;20047;-70
2022/03/16 07:25:38;;;;;;;43.10;29.33;;;5.50;99.90;;;;;;5119457;27;20046;-68
2022/03/16 07:28:04;;;;;;;40.67;29.95;;;5.50;99.90;;;;;;5108954;27;21620;-68
2022/03/16 07:30:30;;;;;;;41.83;29.20;;;5.60;99.90;;;;;;5097818;27;20047;-69
2022/03/16 07:32:56;;;;;;;43.72;30.40;;;5.70;99.90;;;;;;5110632;27;20107;-68
2022/03/16 07:35:26;;;;;;;43.53;29.92;;;5.80;99.90;;;;;;5112504;27;20070;-68
2022/03/16 07:37:53;;;;;;;42.10;29.30;;;5.90;99.90;;;;;;5106486;27;20159;-67
2022/03/16 07:40:19;;;;;;;42.88;30.05;;;5.90;99.90;;;;;;5116809;27;20087;-70
2022/03/16 07:42:46;;;;;;;43.53;29.83;;;6.00;99.90;;;;;;5111116;27;20039;-69
2022/03/16 07:45:14;;;;;;;49.10;32.40;;;6.10;99.90;;;;;;5113134;27;20051;-69
2022/03/16 07:47:40;;;;;;;41.38;29.40;;;6.20;99.90;;;;;;5113891;27;20051;-70
2022/03/16 07:50:07;;;;;;;47.33;32.45;;;6.30;99.90;;;;;;5116075;27;20065;-68
2022/03/16 07:52:33;;;;;;;49.58;34.22;;;6.40;99.90;;;;;;5110146;27;20052;-69
2022/03/16 07:54:59;;;;;;;47.00;32.53;;;6.50;99.90;;;;;;5111343;27;20482;-67
2022/03/16 07:57:25;;;;;;;48.95;34.00;;;6.60;99.90;;;;;;5112147;27;20469;-68
2022/03/16 07:59:51;;;;;;;48.22;33.83;;;6.70;99.90;;;;;;5080355;28;20576;-70
2022/03/16 08:02:17;;;;;;;44.58;32.22;;;6.80;99.90;;;;;;5107957;28;20122;-71
2022/03/16 08:04:42;;;;;;;46.42;33.33;;;6.80;99.90;;;;;;5098288;27;20039;-69
2022/03/16 08:07:11;;;;;;;47.85;31.92;;;6.90;99.90;;;;;;5107399;28;20057;-68
2022/03/16 08:09:36;;;;;;;45.17;31.50;;;6.90;99.90;;;;;;5103747;28;20469;-71
2022/03/16 08:12:03;;;;;;;41.08;30.05;;;7.00;99.90;;;;;;5098315;28;20051;-68
2022/03/16 08:14:28;;;;;;;42.38;29.92;;;7.00;99.90;;;;;;5100195;27;21500;-71
2022/03/16 08:16:54;;;;;;;40.60;30.83;;;7.10;99.90;;;;;;5111906;27;20080;-68
2022/03/16 08:19:21;;;;;;;42.67;31.17;;;7.10;99.90;;;;;;5117508;27;20086;-68
2022/03/16 08:21:49;;;;;;;38.15;28.75;;;7.20;99.90;;;;;;5099047;27;20126;-70
2022/03/16 08:24:15;;;;;;;39.30;29.23;;;7.30;99.90;;;;;;5116712;27;20031;-69
2022/03/16 08:26:41;;;;;;;38.72;26.70;;;7.40;99.90;;;;;;5115794;27;20485;-71
2022/03/16 08:29:07;;;;;;;34.78;26.10;;;7.40;99.90;;;;;;5118632;27;20036;-68
2022/03/16 08:31:33;;;;;;;36.83;26.60;;;7.50;99.90;;;;;;5112599;27;20055;-67
2022/03/16 08:33:59;;;;;;;35.80;26.00;;;7.60;99.90;;;;;;5116706;27;20058;-68
2022/03/16 08:36:25;;;;;;;35.90;25.27;;;7.60;99.90;;;;;;5120618;27;20058;-69
2022/03/16 08:38:50;;;;;;;35.83;25.23;;;7.70;99.90;;;;;;5118130;27;20092;-70
2022/03/16 08:41:16;;;;;;;32.60;23.20;;;7.70;99.90;;;;;;5119775;27;20105;-68
2022/03/16 08:43:41;;;;;;;33.30;24.60;;;7.80;99.90;;;;;;5091257;28;20057;-69
2022/03/16 08:46:07;;;;;;;33.85;25.20;;;7.90;99.90;;;;;;5104894;27;20158;-69
2022/03/16 08:48:32;;;;;;;35.00;23.98;;;8.00;99.90;;;;;;5120114;27;20043;-68
2022/03/16 08:50:58;;;;;;;33.28;24.13;;;8.10;99.90;;;;;;5116376;27;20132;-70
2022/03/16 08:53:24;;;;;;;28.00;21.67;;;8.10;99.90;;;;;;5097118;27;20473;-69
2022/03/16 08:55:50;;;;;;;28.17;20.00;;;8.20;99.90;;;;;;5111752;27;20044;-70
2022/03/16 08:58:16;;;;;;;30.38;20.00;;;8.30;99.90;;;;;;5107852;27;20042;-70
2022/03/16 09:00:42;;;;;;;27.40;19.52;;;8.30;99.90;;;;;;5101101;27;20746;-67
2022/03/16 09:03:08;;;;;;;31.25;21.23;;;8.40;99.90;;;;;;5105220;28;20140;-68
2022/03/16 09:05:34;;;;;;;29.40;20.08;;;8.50;99.90;;;;;;5101852;27;20551;-67
2022/03/16 09:08:00;;;;;;;30.05;21.35;;;8.60;99.90;;;;;;5105835;27;20222;-67
2022/03/16 09:10:25;;;;;;;30.00;21.30;;;8.70;99.90;;;;;;5098963;27;20043;-69
2022/03/16 09:12:51;;;;;;;30.05;19.38;;;8.80;99.90;;;;;;5114684;27;20408;-70
2022/03/16 09:15:17;;;;;;;28.10;19.98;;;8.90;99.90;;;;;;5108949;27;20040;-68
2022/03/16 09:17:42;;;;;;;30.40;19.75;;;9.00;99.90;;;;;;5108256;27;20043;-69
2022/03/16 09:20:08;;;;;;;26.13;19.33;;;9.10;99.90;;;;;;5108811;28;20187;-69
2022/03/16 09:22:34;;;;;;;28.70;19.33;;;9.10;99.90;;;;;;5095984;27;20031;-70
2022/03/16 09:25:00;;;;;;;25.65;18.17;;;9.20;99.90;;;;;;5116578;27;20392;-69
2022/03/16 09:27:26;;;;;;;26.35;19.60;;;9.30;99.90;;;;;;5112269;27;20119;-70
2022/03/16 09:29:54;;;;;;;25.67;19.02;;;9.40;99.90;;;;;;5099790;28;20039;-68
2022/03/16 09:32:21;;;;;;;26.80;18.38;;;9.60;99.90;;;;;;5115331;27;20131;-68
2022/03/16 09:34:48;;;;;;;26.25;19.08;;;9.60;99.90;;;;;;5094305;28;20040;-68
2022/03/16 09:37:14;;;;;;;26.15;19.20;;;9.80;99.90;;;;;;5099805;28;20032;-68
2022/03/16 09:39:39;;;;;;;25.42;17.95;;;9.90;99.90;;;;;;5106107;28;20054;-68
2022/03/16 09:42:06;;;;;;;24.75;18.50;;;9.90;99.90;;;;;;5107266;28;20400;-70
2022/03/16 09:44:32;;;;;;;25.77;17.77;;;10.00;99.90;;;;;;5108065;28;20706;-68
2022/03/16 09:46:58;;;;;;;23.00;17.05;;;10.10;99.90;;;;;;5105068;28;20146;-70
2022/03/16 09:49:26;;;;;;;23.67;16.58;;;10.10;99.90;;;;;;5103939;28;20031;-69
2022/03/16 09:51:53;;;;;;;23.83;16.95;;;10.20;99.90;;;;;;5102858;28;20057;-69
2022/03/16 09:54:19;;;;;;;23.23;16.08;;;10.20;99.90;;;;;;5068278;28;20035;-69
2022/03/16 09:56:46;;;;;;;22.70;15.57;;;10.30;99.90;;;;;;5108033;28;20051;-71
2022/03/16 09:59:11;;;;;;;22.42;13.95;;;10.40;99.90;;;;;;5107714;28;20127;-69
2022/03/16 10:01:37;;;;;;;18.90;12.52;;;10.50;99.90;;;;;;5113355;28;20126;-70
2022/03/16 10:04:06;;;;;;;18.33;12.52;;;10.50;99.90;;;;;;5103286;28;20036;-70
2022/03/16 10:06:35;;;;;;;17.35;11.35;;;10.60;99.90;;;;;;5097389;28;20062;-69
2022/03/16 10:15:01;;;;;;;17.38;11.45;;;10.90;99.90;;;;;;5104848;28;20052;-69
2022/03/16 10:17:45;;;;;;;20.75;13.18;;;11.00;99.90;;;;;;5088176;28;20184;-68
2022/03/16 10:20:39;;;;;;;16.20;11.38;;;11.10;99.90;;;;;;5101002;28;20503;-70
2022/03/16 10:23:20;;;;;;;16.02;11.55;;;11.30;99.90;;;;;;5106060;28;20078;-70
2022/03/16 10:25:51;;;;;;;17.17;11.48;;;11.30;99.90;;;;;;5107487;28;20048;-69
2022/03/16 10:28:17;;;;;;;14.70;10.43;;;11.40;99.90;;;;;;5118672;28;20035;-70
2022/03/16 10:30:56;;;;;;;18.42;10.55;;;11.60;99.90;;;;;;5120984;28;20039;-67
2022/03/16 10:33:44;;;;;;;14.00;9.35;;;11.70;99.90;;;;;;5116641;28;20127;-68
2022/03/16 10:36:16;;;;;;;14.20;9.55;;;11.80;99.90;;;;;;5113073;28;20046;-67
2022/03/16 10:38:45;;;;;;;15.88;10.00;;;11.80;99.20;;;;;;5105901;28;20377;-69
2022/03/16 10:46:56;;;;;;;13.77;9.88;;;12.00;99.00;;;;;;5109129;28;20043;-70
2022/03/16 10:49:22;;;;;;;15.20;10.02;;;12.00;99.20;;;;;;5093099;28;20088;-68
2022/03/16 10:52:05;;;;;;;16.70;10.30;;;12.20;98.70;;;;;;5089053;28;20050;-70
2022/03/16 10:54:31;;;;;;;18.30;11.13;;;12.30;98.70;;;;;;5108950;28;20477;-68
2022/03/16 10:56:59;;;;;;;17.02;10.43;;;12.30;98.50;;;;;;5112162;27;20123;-69
2022/03/16 10:59:29;;;;;;;15.25;10.95;;;12.40;98.50;;;;;;5109338;27;20051;-67
2022/03/16 11:02:01;;;;;;;15.48;10.20;;;12.40;98.50;;;;;;5103993;28;20442;-67
2022/03/16 11:04:29;;;;;;;14.70;9.55;;;12.50;98.50;;;;;;5109066;27;20103;-67
2022/03/16 11:06:56;;;;;;;17.35;10.85;;;12.50;96.80;;;;;;5108005;27;20479;-70
2022/03/16 11:09:23;;;;;;;14.52;9.55;;;12.50;96.60;;;;;;5084096;28;20047;-72
2022/03/16 11:14:34;;;;;;;13.75;9.07;;;12.50;95.50;;;;;;5112912;27;20047;-68
2022/03/16 11:17:02;;;;;;;13.68;8.93;;;12.60;95.20;;;;;;5122817;27;20047;-68
2022/03/16 11:19:29;;;;;;;12.88;9.20;;;12.50;95.10;;;;;;5114843;27;20081;-69
2022/03/16 11:22:12;;;;;;;14.27;8.98;;;12.50;94.20;;;;;;5116972;27;20031;-69
2022/03/16 11:28:45;;;;;;;14.70;9.00;;;12.50;93.10;;;;;;5110789;27;20059;-70
2022/03/16 11:32:10;;;;;;;18.58;9.93;;;12.50;93.10;;;;;;5037181;28;20479;-69
2022/03/16 11:34:58;;;;;;;;;;;;;;;;;;;;;
2022/03/16 11:43:41;;;;;;;;;;;;;;;;;;;;;
2022/03/16 11:46:35;;;;;;;14.32;9.23;;;12.70;92.40;;;;;;5093097;28;20048;-70
2022/03/16 11:49:04;;;;;;;13.40;9.02;;;12.70;92.80;;;;;;5103227;28;20062;-67
2022/03/16 11:51:30;;;;;;;14.50;9.77;;;12.80;94.20;;;;;;5111583;28;20089;-68
2022/03/16 11:54:01;;;;;;;12.93;9.30;;;12.90;94.40;;;;;;5110625;27;20043;-69
2022/03/16 11:56:36;;;;;;;12.82;9.40;;;12.90;93.10;;;;;;5116585;27;20446;-71
2022/03/16 11:59:17;;;;;;;14.27;9.88;;;13.00;93.60;;;;;;5108527;28;20047;-68
2022/03/16 12:02:03;;;;;;;13.75;9.13;;;13.00;92.10;;;;;;5108193;28;20086;-69
2022/03/16 12:04:33;;;;;;;16.35;10.13;;;13.00;92.00;;;;;;5108214;28;20101;-70
2022/03/16 12:07:08;;;;;;;14.50;9.77;;;13.00;92.60;;;;;;5105311;27;20054;-67
2022/03/16 12:09:45;;;;;;;;;;;13.10;92.70;;;;;;5088315;28;20497;-67
2022/03/16 12:12:59;;;;;;;16.08;10.13;;;13.20;91.60;;;;;;5082971;27;20068;-67
2022/03/16 12:15:32;;;;;;;14.30;9.57;;;13.20;91.60;;;;;;5131285;27;20059;-68
2022/03/16 12:17:57;;;;;;;14.02;9.40;;;13.20;91.60;;;;;;5107565;27;20131;-68
2022/03/16 12:20:23;;;;;;;15.15;9.85;;;13.20;91.90;;;;;;5089151;28;20118;-68
2022/03/16 12:22:54;;;;;;;14.32;9.90;;;13.30;91.70;;;;;;5107115;28;20050;-67
2022/03/16 12:25:25;;;;;;;15.48;10.55;;;13.40;90.90;;;;;;5109776;28;20035;-68
2022/03/16 12:30:39;;;;;;;14.90;10.30;;;13.30;90.00;;;;;;5088138;28;20044;-67
2022/03/16 12:33:05;;;;;;;13.30;9.48;;;13.40;91.00;;;;;;5089374;28;20387;-69
2022/03/16 12:35:37;;;;;;;14.48;9.77;;;13.50;90.80;;;;;;5088806;28;20040;-67
2022/03/16 12:38:02;;;;;;;13.63;9.55;;;13.50;90.10;;;;;;5096350;27;20122;-69
2022/03/16 12:40:31;;;;;;;14.50;9.63;;;13.50;90.20;;;;;;5094971;27;20189;-69
2022/03/16 12:42:57;;;;;;;11.73;8.80;;;13.60;90.50;;;;;;5098426;28;20076;-68
2022/03/16 12:45:26;;;;;;;14.27;10.32;;;13.60;90.00;;;;;;5108814;28;20410;-69
2022/03/16 12:48:04;;;;;;;15.40;10.13;;;13.60;90.00;;;;;;5109043;28;20044;-68
2022/03/16 12:50:30;;;;;;;14.15;9.23;;;13.50;87.70;;;;;;5104122;28;20156;-68
2022/03/16 12:52:55;;;;;;;14.35;10.02;;;13.60;88.00;;;;;;5092673;27;20043;-68
2022/03/16 12:55:21;;;;;;;13.93;9.85;;;13.60;87.00;;;;;;5129138;27;20129;-68
2022/03/16 12:58:04;;;;;;;14.30;9.50;;;13.60;87.30;;;;;;5112667;27;20040;-69
2022/03/16 13:00:32;;;;;;;15.00;10.13;;;13.60;84.50;;;;;;5089773;28;20047;-69
2022/03/16 13:03:14;;;;;;;15.07;10.00;;;13.60;86.10;;;;;;5070004;28;20126;-68
2022/03/16 13:05:39;;;;;;;15.57;10.18;;;13.70;86.80;;;;;;5114554;27;20131;-67
2022/03/16 13:08:07;;;;;;;13.95;10.45;;;13.80;88.60;;;;;;5064943;28;20073;-69